Time;durP1;ratioP1;P1;durP2;ratioP2;P2;SDS_P1;SDS_P2;PMS_P1;PMS_P2;Temp;Humidity;BMP_temperature;BMP_pressure;BME280_temperature;BME280_humidity;BME280_pressure;Samples;Min_cycle;Max_cycle;Signal;HPM_P1;HPM_P2
2021/05/07 00:01:05;;;;;;;2.60;2.40;;;10.50;99.90;;;;;;5027843;28;20203;-69
2021/05/07 00:03:31;;;;;;;2.87;2.30;;;10.50;99.90;;;;;;5022520;28;20458;-70
2021/05/07 00:05:57;;;;;;;4.03;2.70;;;10.50;99.90;;;;;;5025977;28;20462;-69
2021/05/07 00:08:34;;;;;;;2.57;2.37;;;10.50;99.90;;;;;;5026874;28;20431;-69
2021/05/07 00:11:02;;;;;;;3.40;2.47;;;10.50;99.90;;;;;;5024735;28;20462;-69
2021/05/07 00:13:28;;;;;;;2.70;2.50;;;10.50;99.90;;;;;;5013645;28;20457;-70
2021/05/07 00:15:53;;;;;;;2.70;2.50;;;10.40;99.90;;;;;;5025794;28;20435;-70
2021/05/07 00:18:19;;;;;;;3.00;2.80;;;10.40;99.90;;;;;;5025828;28;20249;-68
2021/05/07 00:20:45;;;;;;;2.70;2.50;;;10.40;99.90;;;;;;5024735;28;20183;-72
2021/05/07 00:23:11;;;;;;;2.63;2.43;;;10.30;99.90;;;;;;5024335;28;20212;-68
2021/05/07 00:25:36;;;;;;;3.60;2.50;;;10.30;99.90;;;;;;5013139;28;20228;-70
2021/05/07 00:28:08;;;;;;;3.00;2.57;;;10.30;99.90;;;;;;5023361;28;20231;-70
2021/05/07 00:30:34;;;;;;;2.80;2.60;;;10.30;99.90;;;;;;5024590;28;20435;-67
2021/05/07 00:33:00;;;;;;;2.90;2.70;;;10.30;99.90;;;;;;5021957;28;20534;-69
2021/05/07 00:35:26;;;;;;;3.00;2.70;;;10.20;99.90;;;;;;5025585;28;20859;-68
2021/05/07 00:37:52;;;;;;;2.90;2.70;;;10.30;99.90;;;;;;5025229;28;20208;-70
2021/05/07 00:40:19;;;;;;;2.87;2.57;;;10.20;99.90;;;;;;5025707;28;20430;-70
2021/05/07 00:42:45;;;;;;;2.93;2.63;;;10.20;99.90;;;;;;5026249;28;20468;-68
2021/05/07 00:45:13;;;;;;;2.80;2.50;;;10.20;99.90;;;;;;5026964;28;20470;-70
2021/05/07 00:47:46;;;;;;;2.77;2.57;;;10.10;99.90;;;;;;5008954;28;20196;-69
2021/05/07 00:50:12;;;;;;;2.80;2.60;;;10.00;99.90;;;;;;5020761;28;20435;-70
2021/05/07 00:52:38;;;;;;;2.73;2.40;;;9.90;99.90;;;;;;5023603;28;20453;-70
2021/05/07 00:55:05;;;;;;;3.13;2.83;;;9.90;99.90;;;;;;5023001;28;20185;-69
2021/05/07 00:57:32;;;;;;;2.50;2.30;;;9.90;99.90;;;;;;5023372;28;20254;-70
2021/05/07 00:59:58;;;;;;;2.50;2.30;;;9.90;99.90;;;;;;5025027;28;20509;-72
2021/05/07 01:02:24;;;;;;;3.00;2.70;;;9.90;99.90;;;;;;5015294;28;20454;-70
2021/05/07 01:04:50;;;;;;;2.80;2.57;;;9.90;99.90;;;;;;5022927;28;20461;-70
2021/05/07 01:07:16;;;;;;;2.60;2.30;;;9.90;99.90;;;;;;5021150;28;20438;-71
2021/05/07 01:09:42;;;;;;;2.97;2.33;;;9.80;99.90;;;;;;5023354;28;20435;-69
2021/05/07 01:12:08;;;;;;;2.33;2.13;;;9.80;99.90;;;;;;5017649;28;20438;-69
2021/05/07 01:14:35;;;;;;;4.77;2.70;;;9.70;99.90;;;;;;5025432;28;20418;-71
2021/05/07 01:17:00;;;;;;;2.87;2.37;;;9.70;99.90;;;;;;5025718;28;20438;-71
2021/05/07 01:19:27;;;;;;;6.40;2.93;;;9.80;99.90;;;;;;5030386;28;20469;-69
2021/05/07 01:21:53;;;;;;;2.77;2.50;;;9.70;99.90;;;;;;5027377;28;20717;-69
2021/05/07 01:24:21;;;;;;;3.33;2.60;;;9.70;99.90;;;;;;5020954;28;20451;-69
2021/05/07 01:26:47;;;;;;;2.50;2.30;;;9.70;99.90;;;;;;5021204;28;20865;-70
2021/05/07 01:29:13;;;;;;;2.93;2.37;;;9.60;99.90;;;;;;5028825;28;20426;-68
2021/05/07 01:31:43;;;;;;;2.87;2.37;;;9.60;99.90;;;;;;5029765;28;20427;-72
2021/05/07 01:34:09;;;;;;;3.00;2.70;;;9.60;99.90;;;;;;5026785;28;20991;-70
2021/05/07 01:36:35;;;;;;;2.47;2.27;;;9.70;99.90;;;;;;5011142;28;20635;-69
2021/05/07 01:39:00;;;;;;;5.10;2.50;;;9.70;99.90;;;;;;5027787;28;20574;-69
2021/05/07 01:41:26;;;;;;;2.70;2.50;;;9.70;99.90;;;;;;5026725;28;20438;-69
2021/05/07 01:43:52;;;;;;;2.57;2.37;;;9.70;99.90;;;;;;5027394;28;20281;-69
2021/05/07 01:46:17;;;;;;;3.10;2.30;;;9.60;99.90;;;;;;5028698;28;20674;-70
2021/05/07 01:48:43;;;;;;;3.27;2.67;;;9.70;99.90;;;;;;5027803;28;20184;-69
2021/05/07 01:51:09;;;;;;;3.80;2.90;;;9.70;99.90;;;;;;5023872;28;20847;-70
2021/05/07 01:53:36;;;;;;;2.87;2.57;;;9.70;99.90;;;;;;5029238;28;20208;-70
2021/05/07 01:56:01;;;;;;;2.63;2.43;;;9.70;99.90;;;;;;5028434;28;20415;-68
2021/05/07 01:58:27;;;;;;;2.43;2.23;;;9.70;99.90;;;;;;5029506;28;20942;-69
2021/05/07 02:00:53;;;;;;;2.70;2.50;;;9.70;99.90;;;;;;5030600;28;20172;-67
2021/05/07 02:03:19;;;;;;;2.83;2.63;;;9.70;99.90;;;;;;5016304;28;21000;-68
2021/05/07 02:05:45;;;;;;;4.00;2.77;;;9.80;99.90;;;;;;5026319;28;20467;-71
2021/05/07 02:08:11;;;;;;;2.80;2.60;;;9.70;99.90;;;;;;5026252;28;20435;-69
2021/05/07 02:10:38;;;;;;;3.30;3.00;;;9.70;99.90;;;;;;5029103;28;20562;-68
2021/05/07 02:13:06;;;;;;;3.50;2.77;;;9.60;99.90;;;;;;5026186;28;21018;-69
2021/05/07 02:15:33;;;;;;;4.07;2.77;;;9.60;99.90;;;;;;5021491;28;21239;-69
2021/05/07 02:17:59;;;;;;;2.70;2.50;;;9.60;99.90;;;;;;5026894;28;20435;-70
2021/05/07 02:20:27;;;;;;;3.50;2.50;;;9.60;99.90;;;;;;5028619;28;20438;-69
2021/05/07 02:22:54;;;;;;;3.23;2.93;;;9.60;99.90;;;;;;5023555;28;20509;-71
2021/05/07 02:25:22;;;;;;;2.83;2.57;;;9.60;99.90;;;;;;5017212;28;20874;-69
2021/05/07 02:27:49;;;;;;;3.20;2.70;;;9.70;99.90;;;;;;5025576;28;20429;-69
2021/05/07 02:30:21;;;;;;;3.20;2.73;;;9.60;99.90;;;;;;5023279;28;20467;-69
2021/05/07 02:32:47;;;;;;;5.93;2.50;;;9.60;99.90;;;;;;5025928;28;20541;-69
2021/05/07 02:35:13;;;;;;;3.10;2.80;;;9.60;99.90;;;;;;5019860;28;20459;-68
2021/05/07 02:37:39;;;;;;;3.33;2.90;;;9.60;99.90;;;;;;5012531;28;20294;-67
2021/05/07 02:40:06;;;;;;;3.17;2.97;;;9.60;99.90;;;;;;5026055;28;20979;-68
2021/05/07 02:42:33;;;;;;;3.30;3.00;;;9.60;99.90;;;;;;5024843;28;21227;-71
2021/05/07 02:44:58;;;;;;;3.20;2.90;;;9.50;99.90;;;;;;5030185;28;20999;-71
2021/05/07 02:47:24;;;;;;;3.43;3.13;;;9.60;99.90;;;;;;5016117;28;20459;-71
2021/05/07 02:49:50;;;;;;;2.80;2.60;;;9.50;99.90;;;;;;5024778;28;20185;-71
2021/05/07 02:52:15;;;;;;;6.90;3.53;;;9.40;99.90;;;;;;5022891;28;20770;-69
2021/05/07 02:54:41;;;;;;;3.50;3.20;;;9.50;99.90;;;;;;5025856;28;20193;-70
2021/05/07 02:57:07;;;;;;;3.57;3.27;;;9.50;99.90;;;;;;5020276;28;20215;-70
2021/05/07 02:59:32;;;;;;;3.60;3.30;;;9.50;99.90;;;;;;5024834;28;20267;-70
2021/05/07 03:01:58;;;;;;;4.20;3.70;;;9.50;99.90;;;;;;5026574;28;20839;-72
2021/05/07 03:04:24;;;;;;;3.97;3.60;;;9.50;99.90;;;;;;5023934;28;20191;-69
2021/05/07 03:06:50;;;;;;;4.10;3.70;;;9.50;99.90;;;;;;5017896;28;20200;-72
2021/05/07 03:09:17;;;;;;;4.00;3.50;;;9.40;99.90;;;;;;5025336;28;20185;-69
2021/05/07 03:11:43;;;;;;;5.63;3.87;;;9.50;99.90;;;;;;5026967;28;20507;-71
2021/05/07 03:14:09;;;;;;;4.43;4.03;;;9.40;99.90;;;;;;5022100;28;20451;-69
2021/05/07 03:16:35;;;;;;;4.60;3.63;;;9.30;99.90;;;;;;5016821;28;20497;-71
2021/05/07 03:19:02;;;;;;;4.87;3.80;;;9.30;99.90;;;;;;5022446;28;21168;-70
2021/05/07 03:21:28;;;;;;;5.10;3.97;;;9.40;99.90;;;;;;5024938;28;20223;-69
2021/05/07 03:23:53;;;;;;;4.60;4.17;;;9.30;99.90;;;;;;5025349;28;20487;-70
2021/05/07 03:26:19;;;;;;;3.80;3.40;;;9.40;99.90;;;;;;5026763;28;20216;-69
2021/05/07 03:28:45;;;;;;;3.50;3.17;;;9.30;99.90;;;;;;5013066;28;20213;-70
2021/05/07 03:31:10;;;;;;;4.13;3.70;;;9.30;99.90;;;;;;5024029;28;20188;-68
2021/05/07 03:33:37;;;;;;;4.00;3.60;;;9.40;99.90;;;;;;5023315;28;20279;-70
2021/05/07 03:36:04;;;;;;;3.77;3.37;;;9.30;99.90;;;;;;5020018;28;20540;-70
2021/05/07 03:38:30;;;;;;;3.30;3.00;;;9.30;99.90;;;;;;5021389;28;20428;-72
2021/05/07 03:40:55;;;;;;;5.20;3.20;;;9.30;99.90;;;;;;5022614;28;20462;-70
2021/05/07 03:43:21;;;;;;;3.93;3.10;;;9.20;99.90;;;;;;5019136;28;20236;-70
2021/05/07 03:45:47;;;;;;;3.47;3.17;;;9.20;99.90;;;;;;5020233;28;20299;-70
2021/05/07 03:48:20;;;;;;;3.77;3.00;;;9.30;99.90;;;;;;5023941;28;20518;-69
2021/05/07 03:50:47;;;;;;;3.73;3.10;;;9.30;99.90;;;;;;5003124;28;20625;-69
2021/05/07 03:53:14;;;;;;;3.63;3.33;;;9.20;99.90;;;;;;5017132;28;20456;-67
2021/05/07 03:55:41;;;;;;;3.60;3.30;;;9.20;99.90;;;;;;5021544;28;20430;-68
2021/05/07 03:58:07;;;;;;;4.00;3.60;;;9.30;99.90;;;;;;5018927;28;20427;-67
2021/05/07 04:00:33;;;;;;;3.40;3.10;;;9.20;99.90;;;;;;5023435;28;20564;-68
2021/05/07 04:02:59;;;;;;;3.83;3.53;;;9.20;99.90;;;;;;5018015;28;20455;-69
2021/05/07 04:05:25;;;;;;;3.70;3.40;;;9.10;99.90;;;;;;5018106;28;20897;-69
2021/05/07 04:08:08;;;;;;;3.50;3.20;;;9.10;99.90;;;;;;5023438;28;20882;-69
2021/05/07 04:10:39;;;;;;;3.37;3.07;;;9.10;99.90;;;;;;5022621;28;20480;-70
2021/05/07 04:15:30;;;;;;;4.60;3.43;;;9.10;99.90;;;;;;5013890;28;20546;-69
2021/05/07 04:17:56;;;;;;;3.10;2.80;;;9.00;99.90;;;;;;5019019;28;20290;-69
2021/05/07 04:20:21;;;;;;;4.30;3.80;;;9.00;99.90;;;;;;5025760;28;20606;-69
2021/05/07 04:22:47;;;;;;;5.17;3.30;;;9.00;99.90;;;;;;5028718;28;20203;-68
2021/05/07 04:25:15;;;;;;;4.20;3.60;;;9.00;99.90;;;;;;5021965;28;20208;-69
2021/05/07 04:27:40;;;;;;;3.93;3.33;;;8.90;99.90;;;;;;5013885;28;20703;-70
2021/05/07 04:30:07;;;;;;;3.57;3.27;;;8.90;99.90;;;;;;5022463;28;20492;-68
2021/05/07 04:32:33;;;;;;;3.37;3.07;;;8.90;99.90;;;;;;5020102;28;20227;-70
2021/05/07 04:34:59;;;;;;;4.27;3.87;;;8.90;99.90;;;;;;5022936;28;20423;-70
2021/05/07 04:37:24;;;;;;;4.70;3.47;;;9.00;99.90;;;;;;5022984;28;20192;-69
2021/05/07 04:39:50;;;;;;;5.10;3.50;;;9.10;99.90;;;;;;5018830;28;20822;-70
2021/05/07 04:42:15;;;;;;;4.20;3.40;;;9.10;99.90;;;;;;5021657;28;20265;-69
2021/05/07 04:44:42;;;;;;;4.23;3.70;;;9.10;99.90;;;;;;5024315;28;20198;-69
2021/05/07 04:47:08;;;;;;;4.40;4.00;;;9.10;99.90;;;;;;5026870;28;20600;-69
2021/05/07 04:49:34;;;;;;;3.50;3.20;;;9.00;99.90;;;;;;5025607;28;20439;-69
2021/05/07 04:51:59;;;;;;;4.40;3.87;;;9.00;99.90;;;;;;5018811;28;20996;-69
2021/05/07 04:54:26;;;;;;;4.93;4.23;;;9.00;99.90;;;;;;5034494;28;20202;-70
2021/05/07 04:56:52;;;;;;;4.63;4.07;;;9.00;99.90;;;;;;5029610;28;20224;-70
2021/05/07 04:59:17;;;;;;;4.37;3.70;;;9.10;99.90;;;;;;5028422;28;20623;-68
2021/05/07 05:01:43;;;;;;;4.33;3.93;;;9.00;99.90;;;;;;5030586;28;20230;-70
2021/05/07 05:04:08;;;;;;;5.37;4.40;;;9.10;99.90;;;;;;5016229;28;20252;-70
2021/05/07 05:06:34;;;;;;;4.70;4.20;;;9.00;99.90;;;;;;5029230;28;20207;-69
2021/05/07 05:09:00;;;;;;;4.57;4.10;;;9.00;99.90;;;;;;5030655;28;20246;-70
2021/05/07 05:11:25;;;;;;;5.97;4.40;;;9.10;99.90;;;;;;5025589;28;20195;-69
2021/05/07 05:13:51;;;;;;;4.03;3.63;;;9.00;99.90;;;;;;5024970;28;20235;-69
2021/05/07 05:16:18;;;;;;;6.70;4.50;;;8.90;99.90;;;;;;5014572;28;20204;-69
2021/05/07 05:18:44;;;;;;;7.93;5.40;;;9.00;99.90;;;;;;5029900;28;20563;-69
2021/05/07 05:21:10;;;;;;;4.77;4.27;;;9.00;99.90;;;;;;5026457;28;20453;-69
2021/05/07 05:23:38;;;;;;;6.40;4.57;;;9.00;99.90;;;;;;5026656;28;20447;-70
2021/05/07 05:26:03;;;;;;;4.50;3.97;;;9.00;99.90;;;;;;5026834;28;20214;-71
2021/05/07 05:28:29;;;;;;;4.53;4.17;;;9.00;99.90;;;;;;5026364;28;20419;-71
2021/05/07 05:30:55;;;;;;;6.63;4.37;;;9.10;99.90;;;;;;5017990;28;20221;-70
2021/05/07 05:33:21;;;;;;;4.97;4.50;;;9.10;99.90;;;;;;5022212;28;20259;-69
2021/05/07 05:35:48;;;;;;;6.20;4.30;;;9.10;99.90;;;;;;5022920;28;20473;-70
2021/05/07 05:38:14;;;;;;;6.10;5.50;;;9.10;99.90;;;;;;5020894;28;20515;-69
2021/05/07 05:40:43;;;;;;;7.07;4.97;;;9.20;99.90;;;;;;5017527;28;20473;-69
2021/05/07 05:43:09;;;;;;;5.63;5.03;;;9.20;99.90;;;;;;5019718;28;20512;-69
2021/05/07 05:45:35;;;;;;;7.33;5.43;;;9.20;99.90;;;;;;5023412;28;20470;-70
2021/05/07 05:48:05;;;;;;;6.50;4.87;;;9.10;99.90;;;;;;5028115;28;21011;-72
2021/05/07 05:50:38;;;;;;;9.33;4.83;;;9.20;99.90;;;;;;5017875;28;20211;-69
2021/05/07 05:53:04;;;;;;;6.63;5.40;;;9.20;99.90;;;;;;5017042;28;20442;-68
2021/05/07 05:55:30;;;;;;;5.37;4.87;;;9.30;99.90;;;;;;5023500;28;20538;-68
2021/05/07 05:57:55;;;;;;;5.73;5.13;;;9.30;99.90;;;;;;5024172;28;22059;-70
2021/05/07 06:00:22;;;;;;;7.27;5.50;;;9.30;99.90;;;;;;5026106;28;20796;-69
2021/05/07 06:02:48;;;;;;;6.33;5.20;;;9.20;99.90;;;;;;5020022;28;20239;-71
2021/05/07 06:05:14;;;;;;;6.87;6.10;;;9.30;99.90;;;;;;5017215;28;20567;-72
2021/05/07 06:07:41;;;;;;;7.93;6.17;;;9.40;99.90;;;;;;5026366;28;20220;-68
2021/05/07 06:10:09;;;;;;;7.30;5.67;;;9.40;99.90;;;;;;5055882;28;20438;-69
2021/05/07 06:12:34;;;;;;;9.57;6.07;;;9.40;99.90;;;;;;5020128;28;20474;-71
2021/05/07 06:15:00;;;;;;;7.53;5.70;;;9.40;99.90;;;;;;5023686;28;20487;-71
2021/05/07 06:17:29;;;;;;;6.90;5.50;;;9.60;99.90;;;;;;4996815;28;20200;-68
2021/05/07 06:20:01;;;;;;;7.57;6.03;;;9.60;99.90;;;;;;5020154;28;20181;-71
2021/05/07 06:22:27;;;;;;;6.40;5.80;;;9.70;99.90;;;;;;5019448;28;20456;-68
2021/05/07 06:24:53;;;;;;;6.33;5.70;;;9.80;99.90;;;;;;5021703;28;20855;-70
2021/05/07 06:27:18;;;;;;;7.77;6.37;;;9.80;99.90;;;;;;5028333;28;20208;-69
2021/05/07 06:29:44;;;;;;;7.63;5.87;;;9.90;99.90;;;;;;5021383;28;20224;-71
2021/05/07 06:32:10;;;;;;;9.13;6.20;;;9.90;99.90;;;;;;5019441;28;20240;-71
2021/05/07 06:34:35;;;;;;;10.90;6.20;;;9.90;99.90;;;;;;5024561;28;20330;-70
2021/05/07 06:37:01;;;;;;;8.47;6.40;;;9.90;99.90;;;;;;5028708;28;20184;-68
2021/05/07 06:39:29;;;;;;;8.10;6.43;;;9.90;99.90;;;;;;5038092;28;20204;-69
2021/05/07 06:41:59;;;;;;;5.90;5.40;;;9.80;99.90;;;;;;5018360;28;20644;-69
2021/05/07 06:44:27;;;;;;;6.33;5.73;;;9.80;99.90;;;;;;5023267;28;21962;-72
2021/05/07 06:46:54;;;;;;;6.50;5.77;;;9.70;99.90;;;;;;5025942;28;20463;-69
2021/05/07 06:49:21;;;;;;;9.00;6.87;;;9.70;99.90;;;;;;5015082;28;20443;-71
2021/05/07 06:51:46;;;;;;;8.43;6.40;;;9.70;99.90;;;;;;5012208;28;21027;-70
2021/05/07 06:54:12;;;;;;;7.90;6.40;;;9.70;99.90;;;;;;5025235;28;20463;-68
2021/05/07 06:56:38;;;;;;;8.80;5.60;;;9.70;99.90;;;;;;5025618;28;20330;-70
2021/05/07 06:59:06;;;;;;;6.87;5.63;;;9.70;99.90;;;;;;5024515;28;20580;-68
2021/05/07 07:01:33;;;;;;;6.00;5.40;;;9.80;99.90;;;;;;5021273;28;20473;-68
2021/05/07 07:03:58;;;;;;;5.33;4.80;;;9.90;99.90;;;;;;5022353;28;20454;-70
2021/05/07 07:06:24;;;;;;;7.17;6.00;;;9.90;99.90;;;;;;5019800;28;20517;-69
2021/05/07 07:08:51;;;;;;;6.10;5.50;;;10.00;99.90;;;;;;5025483;28;20189;-71
2021/05/07 07:11:17;;;;;;;7.27;6.27;;;10.10;99.90;;;;;;5016985;28;20779;-69
2021/05/07 07:13:42;;;;;;;8.10;6.40;;;10.30;99.90;;;;;;5011469;28;20550;-69
2021/05/07 07:16:09;;;;;;;6.30;5.50;;;10.40;99.90;;;;;;5024183;28;20427;-69
2021/05/07 07:18:34;;;;;;;8.50;5.80;;;10.30;99.90;;;;;;5026987;28;20294;-69
2021/05/07 07:21:00;;;;;;;7.50;6.00;;;10.30;99.90;;;;;;5021599;28;21072;-69
2021/05/07 07:23:26;;;;;;;6.60;5.70;;;10.40;99.90;;;;;;5023862;28;20216;-72
2021/05/07 07:25:51;;;;;;;7.63;6.83;;;10.40;99.90;;;;;;5015828;28;20575;-70
2021/05/07 07:28:18;;;;;;;6.33;5.73;;;10.60;99.90;;;;;;5023336;28;20204;-69
2021/05/07 07:30:45;;;;;;;6.60;5.93;;;10.70;99.90;;;;;;5022363;28;20662;-71
2021/05/07 07:33:10;;;;;;;7.27;6.43;;;10.80;99.90;;;;;;5024923;28;20490;-69
2021/05/07 07:35:36;;;;;;;7.10;6.37;;;10.70;99.90;;;;;;5021911;28;20439;-71
2021/05/07 07:38:03;;;;;;;9.67;6.57;;;10.60;99.90;;;;;;5008539;28;20234;-71
2021/05/07 07:40:28;;;;;;;7.50;6.77;;;10.50;99.90;;;;;;5024650;28;20188;-70
2021/05/07 07:42:54;;;;;;;10.53;7.00;;;10.60;99.90;;;;;;5029160;28;20454;-69
2021/05/07 07:45:20;;;;;;;6.77;6.13;;;10.90;99.90;;;;;;5031031;28;20299;-68
2021/05/07 07:47:45;;;;;;;7.77;6.97;;;10.90;99.90;;;;;;5020693;28;20707;-69
2021/05/07 07:50:12;;;;;;;10.70;6.67;;;10.80;99.90;;;;;;5014509;28;20270;-70
2021/05/07 07:52:39;;;;;;;9.30;7.27;;;10.80;99.90;;;;;;5023877;28;20200;-70
2021/05/07 07:55:06;;;;;;;6.70;6.10;;;10.90;99.90;;;;;;5022413;28;21011;-71
2021/05/07 07:57:32;;;;;;;7.50;6.67;;;11.10;99.90;;;;;;5021349;28;20439;-69
2021/05/07 07:59:58;;;;;;;9.63;6.60;;;11.10;99.90;;;;;;5017967;28;20439;-69
2021/05/07 08:02:26;;;;;;;6.60;5.90;;;11.20;99.90;;;;;;5017211;28;20541;-68
2021/05/07 08:04:51;;;;;;;6.40;5.90;;;11.30;99.90;;;;;;5026474;28;20219;-69
2021/05/07 08:07:17;;;;;;;8.23;6.20;;;11.30;99.90;;;;;;5021081;28;21130;-68
2021/05/07 08:09:43;;;;;;;6.17;5.53;;;11.40;99.90;;;;;;5015457;28;20435;-69
2021/05/07 08:12:10;;;;;;;6.57;5.97;;;11.50;99.90;;;;;;5010587;28;20196;-70
2021/05/07 08:14:35;;;;;;;6.13;5.53;;;11.40;99.90;;;;;;5021336;28;20440;-68
2021/05/07 08:17:01;;;;;;;5.97;5.37;;;11.30;99.90;;;;;;5020521;28;20801;-71
2021/05/07 08:19:27;;;;;;;10.03;5.63;;;11.40;99.90;;;;;;5018427;28;20687;-69
2021/05/07 08:21:52;;;;;;;10.00;5.63;;;11.40;99.90;;;;;;5010729;28;20671;-70
2021/05/07 08:24:18;;;;;;;6.60;6.00;;;11.50;99.90;;;;;;5013580;28;20215;-69
2021/05/07 08:26:44;;;;;;;7.17;5.70;;;11.50;99.90;;;;;;5029066;28;20204;-70
2021/05/07 08:29:10;;;;;;;7.30;5.80;;;11.60;99.90;;;;;;5014855;28;20297;-71
2021/05/07 08:31:35;;;;;;;5.90;4.80;;;11.50;99.90;;;;;;5021934;28;20259;-70
2021/05/07 08:34:01;;;;;;;6.97;5.87;;;11.60;99.90;;;;;;5025061;28;20287;-70
2021/05/07 08:36:28;;;;;;;5.90;5.40;;;11.60;99.90;;;;;;5021197;28;20200;-70
2021/05/07 08:38:53;;;;;;;5.80;5.30;;;11.70;99.90;;;;;;5024977;28;20424;-68
2021/05/07 08:41:19;;;;;;;5.10;4.70;;;11.60;99.90;;;;;;5021393;28;20446;-69
2021/05/07 08:43:45;;;;;;;5.10;4.70;;;11.60;99.90;;;;;;5024983;28;20502;-69
2021/05/07 08:46:10;;;;;;;6.33;4.90;;;11.60;99.90;;;;;;5007898;28;20797;-69
2021/05/07 08:48:38;;;;;;;5.73;4.80;;;11.80;99.90;;;;;;5023608;28;20728;-68
2021/05/07 08:51:05;;;;;;;5.87;5.37;;;12.10;99.90;;;;;;5025564;28;20229;-71
2021/05/07 08:53:31;;;;;;;7.30;5.20;;;12.20;99.90;;;;;;5027514;28;20438;-71
2021/05/07 08:56:05;;;;;;;5.17;4.70;;;12.10;99.90;;;;;;5028140;28;20419;-70
2021/05/07 08:58:31;;;;;;;5.77;5.20;;;12.00;99.90;;;;;;5021859;28;20438;-68
2021/05/07 09:00:57;;;;;;;6.30;5.63;;;12.10;99.90;;;;;;5016922;28;20514;-70
2021/05/07 09:03:23;;;;;;;6.33;5.73;;;12.20;99.90;;;;;;5022383;28;20590;-69
2021/05/07 09:05:49;;;;;;;5.27;4.80;;;12.20;99.90;;;;;;5027762;28;20541;-69
2021/05/07 09:08:15;;;;;;;5.80;5.30;;;12.20;99.90;;;;;;5028177;28;20654;-70
2021/05/07 09:10:45;;;;;;;5.80;5.20;;;12.30;99.90;;;;;;5030224;28;20197;-70
2021/05/07 09:13:13;;;;;;;6.77;4.63;;;12.60;99.90;;;;;;5017431;28;20450;-70
2021/05/07 09:15:44;;;;;;;7.40;5.30;;;12.90;99.90;;;;;;5024610;28;20452;-70
2021/05/07 09:18:15;;;;;;;5.73;5.23;;;13.10;99.90;;;;;;5025959;28;20454;-70
2021/05/07 09:20:43;;;;;;;5.60;5.17;;;13.00;99.90;;;;;;5027460;28;20480;-69
2021/05/07 09:23:12;;;;;;;5.20;4.80;;;12.90;96.60;;;;;;5023236;28;20430;-70
2021/05/07 09:25:42;;;;;;;4.93;4.53;;;12.90;95.90;;;;;;5008372;28;20550;-71
2021/05/07 09:28:14;;;;;;;5.57;5.07;;;13.00;92.30;;;;;;5021745;28;20911;-70
2021/05/07 09:30:41;;;;;;;5.40;4.90;;;12.90;93.40;;;;;;5026430;28;20423;-70
2021/05/07 09:33:17;;;;;;;5.87;4.73;;;12.80;94.50;;;;;;5028341;28;20442;-71
2021/05/07 09:35:43;;;;;;;5.30;4.83;;;13.10;94.10;;;;;;5029222;28;20423;-72
2021/05/07 09:38:16;;;;;;;5.50;5.10;;;13.40;92.50;;;;;;5024342;28;20520;-76
2021/05/07 09:40:42;;;;;;;6.47;5.57;;;13.40;90.20;;;;;;5023846;28;20566;-70
2021/05/07 09:43:15;;;;;;;5.17;4.70;;;13.20;88.10;;;;;;5020895;28;20459;-71
2021/05/07 09:45:47;;;;;;;5.67;5.10;;;13.00;87.90;;;;;;5028630;28;20481;-70
2021/05/07 09:48:21;;;;;;;5.53;5.10;;;13.20;85.80;;;;;;5025025;28;20420;-70
2021/05/07 09:50:49;;;;;;;5.40;4.73;;;13.30;86.40;;;;;;5028187;28;20485;-71
2021/05/07 09:53:19;;;;;;;5.50;5.00;;;13.40;85.10;;;;;;5012566;28;20827;-72
2021/05/07 09:55:47;;;;;;;5.07;4.67;;;13.40;79.10;;;;;;5021740;28;21080;-71
2021/05/07 09:58:13;;;;;;;4.80;4.50;;;13.20;82.10;;;;;;5029454;28;20489;-71
2021/05/07 10:00:39;;;;;;;8.70;5.17;;;13.20;78.70;;;;;;5027432;28;20439;-71
2021/05/07 10:03:05;;;;;;;6.23;5.50;;;13.20;80.40;;;;;;5015559;28;21304;-72
2021/05/07 10:05:31;;;;;;;5.47;4.97;;;13.60;80.50;;;;;;5023589;28;20467;-70
2021/05/07 10:07:58;;;;;;;6.17;5.67;;;13.60;79.70;;;;;;5025741;28;20428;-69
2021/05/07 10:10:37;;;;;;;10.80;5.60;;;13.40;75.00;;;;;;5024262;28;21286;-69
2021/05/07 10:13:05;;;;;;;5.40;5.00;;;13.20;75.20;;;;;;5023860;28;20515;-71
2021/05/07 10:15:37;;;;;;;5.60;5.10;;;13.00;79.40;;;;;;5009305;28;20443;-71
2021/05/07 10:18:24;;;;;;;5.33;4.80;;;13.20;80.40;;;;;;5026145;28;20875;-72
2021/05/07 10:21:02;;;;;;;6.20;5.70;;;13.40;78.20;;;;;;5026764;28;20431;-71
2021/05/07 10:23:28;;;;;;;5.10;4.70;;;13.70;77.20;;;;;;5024124;28;20442;-71
2021/05/07 10:25:53;;;;;;;7.20;5.10;;;13.70;75.00;;;;;;5025977;28;20522;-72
2021/05/07 10:28:19;;;;;;;5.97;5.47;;;13.70;71.30;;;;;;5016928;28;20526;-71
2021/05/07 10:30:45;;;;;;;5.27;4.87;;;13.80;72.70;;;;;;5018218;28;20196;-71
2021/05/07 10:33:16;;;;;;;5.57;5.10;;;14.20;73.60;;;;;;5027763;28;20208;-71
2021/05/07 10:35:42;;;;;;;5.73;5.23;;;14.30;70.80;;;;;;5023093;28;20203;-71
2021/05/07 10:38:26;;;;;;;7.47;5.30;;;14.50;69.40;;;;;;5023305;28;20439;-73
2021/05/07 10:41:07;;;;;;;6.00;5.50;;;14.10;65.60;;;;;;5014215;28;20445;-70
2021/05/07 10:43:45;;;;;;;6.33;5.73;;;14.00;67.50;;;;;;5027802;28;21074;-70
2021/05/07 10:46:25;;;;;;;6.37;5.87;;;13.90;66.10;;;;;;5022368;28;20832;-70
2021/05/07 10:48:52;;;;;;;6.30;5.70;;;14.20;68.10;;;;;;5019469;28;21248;-69
2021/05/07 10:51:17;;;;;;;6.17;5.10;;;14.30;64.80;;;;;;5010310;28;20440;-69
2021/05/07 10:53:43;;;;;;;5.80;5.30;;;14.40;64.60;;;;;;5014249;28;20469;-70
2021/05/07 10:56:20;;;;;;;6.50;5.90;;;14.30;63.50;;;;;;5018368;28;20200;-70
2021/05/07 10:58:48;;;;;;;6.03;5.43;;;14.10;63.00;;;;;;5014918;28;20957;-70
2021/05/07 11:01:19;;;;;;;5.93;5.43;;;14.00;64.30;;;;;;5017063;28;21297;-69
2021/05/07 11:03:46;;;;;;;5.40;4.90;;;14.40;64.70;;;;;;5014277;28;20468;-69
2021/05/07 11:06:17;;;;;;;6.33;5.20;;;15.90;66.00;;;;;;5023839;28;21046;-74
2021/05/07 11:08:43;;;;;;;5.90;5.40;;;17.60;64.20;;;;;;5022979;28;20516;-73
2021/05/07 11:11:08;;;;;;;7.13;6.43;;;19.50;59.70;;;;;;5023563;28;20511;-71
2021/05/07 11:13:37;;;;;;;6.67;6.07;;;19.30;54.70;;;;;;5026648;28;20360;-72
2021/05/07 11:16:03;;;;;;;5.90;5.40;;;19.70;54.00;;;;;;5009248;28;20212;-73
2021/05/07 11:18:30;;;;;;;6.40;5.80;;;20.30;53.00;;;;;;5025581;28;20432;-73
2021/05/07 11:20:56;;;;;;;6.63;5.80;;;19.80;50.10;;;;;;5027115;28;20188;-71
2021/05/07 11:23:30;;;;;;;6.67;6.17;;;18.20;50.00;;;;;;5024396;28;20486;-74
2021/05/07 11:25:56;;;;;;;6.43;5.20;;;16.40;50.80;;;;;;5026336;28;20454;-72
2021/05/07 11:28:22;;;;;;;6.97;6.30;;;15.40;53.50;;;;;;5015213;28;20830;-71
2021/05/07 11:30:49;;;;;;;7.50;6.90;;;14.80;54.50;;;;;;5008880;28;20450;-70
2021/05/07 11:33:17;;;;;;;7.23;6.07;;;14.30;57.20;;;;;;5016120;28;20200;-69
2021/05/07 11:35:42;;;;;;;6.07;5.50;;;13.80;59.70;;;;;;5011619;28;21679;-69
2021/05/07 11:38:08;;;;;;;5.50;5.00;;;13.60;61.60;;;;;;5024006;28;20438;-73
2021/05/07 11:40:36;;;;;;;5.73;5.33;;;13.60;64.10;;;;;;5015747;28;20559;-70
2021/05/07 11:43:11;;;;;;;7.87;5.30;;;13.60;68.70;;;;;;5020325;28;20231;-70
2021/05/07 11:45:37;;;;;;;6.97;6.47;;;13.50;70.70;;;;;;5013898;28;20469;-72
2021/05/07 11:48:10;;;;;;;6.30;5.50;;;13.30;72.70;;;;;;5028295;28;20415;-70
2021/05/07 11:50:37;;;;;;;5.40;4.97;;;13.60;73.10;;;;;;5005933;28;20445;-74
2021/05/07 11:53:03;;;;;;;7.40;6.20;;;18.10;72.20;;;;;;5024487;28;20438;-70
2021/05/07 11:55:32;;;;;;;6.33;5.83;;;22.70;59.70;;;;;;5021146;28;22277;-70
2021/05/07 11:57:58;;;;;;;6.00;5.60;;;25.20;52.90;;;;;;5022472;28;20447;-69
2021/05/07 12:00:25;;;;;;;6.37;5.87;;;25.50;45.90;;;;;;5025028;28;20435;-71
2021/05/07 12:03:02;;;;;;;6.00;5.60;;;25.40;45.10;;;;;;5009753;28;20460;-70
2021/05/07 12:05:33;;;;;;;6.43;5.83;;;23.50;43.90;;;;;;5021047;28;20486;-71
2021/05/07 12:08:00;;;;;;;6.00;5.57;;;21.80;45.50;;;;;;5026702;28;20454;-71
2021/05/07 12:10:27;;;;;;;5.60;5.20;;;20.10;46.20;;;;;;5024712;28;20434;-70
2021/05/07 12:12:54;;;;;;;9.73;8.90;;;18.80;47.40;;;;;;5022771;28;20443;-71
2021/05/07 12:15:22;;;;;;;5.43;5.03;;;17.90;49.50;;;;;;5021562;28;20410;-73
2021/05/07 12:17:50;;;;;;;5.10;4.70;;;17.20;50.30;;;;;;5022076;28;20434;-69
2021/05/07 12:20:18;;;;;;;4.50;4.20;;;16.40;49.70;;;;;;5016523;28;20466;-70
2021/05/07 12:22:46;;;;;;;5.43;4.90;;;16.00;52.30;;;;;;5000547;28;20534;-69
2021/05/07 12:25:17;;;;;;;5.47;4.47;;;15.40;54.80;;;;;;5024157;28;20513;-68
2021/05/07 12:27:47;;;;;;;5.27;4.40;;;14.90;57.50;;;;;;5017191;28;20438;-68
2021/05/07 12:30:20;;;;;;;4.57;4.27;;;14.50;60.50;;;;;;5014095;28;20450;-69
2021/05/07 12:33:03;;;;;;;4.30;4.00;;;14.20;65.10;;;;;;5007505;28;20480;-70
2021/05/07 12:35:52;;;;;;;4.93;4.53;;;14.10;70.00;;;;;;5017396;28;20526;-70
2021/05/07 12:38:19;;;;;;;4.50;4.23;;;14.00;73.10;;;;;;5039981;28;20428;-69
2021/05/07 12:40:46;;;;;;;6.40;6.00;;;13.80;72.30;;;;;;5023913;28;20427;-69
2021/05/07 12:43:11;;;;;;;4.40;4.10;;;13.90;74.40;;;;;;5020383;28;20489;-69
2021/05/07 12:45:37;;;;;;;4.83;4.43;;;13.90;73.70;;;;;;5016749;28;20455;-71
2021/05/07 12:48:04;;;;;;;4.97;4.57;;;14.00;72.10;;;;;;5003139;28;20314;-69
2021/05/07 12:50:30;;;;;;;4.40;4.10;;;14.10;71.60;;;;;;5020612;28;20427;-70
2021/05/07 12:52:55;;;;;;;5.70;5.20;;;14.30;72.60;;;;;;5019956;28;20477;-71